Time,TemperatureF,DewpointF,PressureIn,WindDirection,WindDirectionDegrees,WindSpeedMPH,WindSpeedGustMPH,Humidity,HourlyPrecipIn,Conditions,Clouds,dailyrainin,SoftwareType,DateUTC
2013-02-22 08:36:00,27.7,17.5,30.57,SSW,205,1.0,2.0,65,0.00,,,0.00,Weather View 32 v70,2013-02-22 13:36:00,
2013-02-22 09:05:00,28.8,18.5,30.55,NNE,23,2.0,3.0,65,0.00,,,0.00,Weather View 32 v70,2013-02-22 14:05:00,
2013-02-22 09:30:00,29.9,19.6,30.53,NW,324,2.0,6.0,65,0.00,,,0.00,Weather View 32 v70,2013-02-22 14:30:00,
2013-02-22 09:35:00,30.4,20.0,30.53,NW,325,3.0,6.0,65,0.00,,,0.00,Weather View 32 v70,2013-02-22 14:35:00,
2013-02-22 09:40:00,30.8,20.4,30.53,North,4,4.0,6.0,65,0.00,,,0.00,Weather View 32 v70,2013-02-22 14:40:00,
2013-02-22 09:45:00,30.4,20.0,30.53,ENE,76,2.0,6.0,65,0.00,,,0.00,Weather View 32 v70,2013-02-22 14:45:00,
2013-02-22 09:50:00,30.4,20.0,30.53,NW,313,1.0,6.0,65,0.00,,,0.00,Weather View 32 v70,2013-02-22 14:50:00,
2013-02-22 09:55:00,29.5,19.2,30.53,East,84,2.0,6.0,65,0.00,,,0.00,Weather View 32 v70,2013-02-22 14:55:00,
2013-02-22 10:05:00,29.9,19.6,30.51,NNW,346,3.0,6.0,65,0.00,,,0.00,Weather View 32 v70,2013-02-22 15:05:00,
2013-02-22 10:31:00,30.1,19.8,30.52,NE,53,3.0,6.0,65,0.00,,,0.00,Weather View 32 v70,2013-02-22 15:31:00,
2013-02-22 10:35:00,30.6,20.2,30.52,North,3,2.0,6.0,65,0.00,,,0.00,Weather View 32 v70,2013-02-22 15:35:00,
2013-02-22 10:36:00,30.8,20.4,30.52,WNW,303,3.0,6.0,65,0.00,,,0.00,Weather View 32 v70,2013-02-22 15:36:00,
2013-02-22 11:07:00,32.1,21.7,30.53,SW,235,1.0,5.0,65,0.00,,,0.00,Weather View 32 v70,2013-02-22 16:07:00,
2013-02-22 11:13:00,32.1,21.7,30.52,South,183,2.0,5.0,65,0.00,,,0.00,Weather View 32 v70,2013-02-22 16:13:00,
2013-02-22 11:35:00,33.6,23.1,30.51,NNW,331,1.0,6.0,65,0.00,,,0.00,Weather View 32 v70,2013-02-22 16:35:00,
2013-02-22 11:40:00,33.6,22.7,30.51,NNW,339,4.0,6.0,64,0.00,,,0.00,Weather View 32 v70,2013-02-22 16:40:00,
2013-02-22 11:45:00,33.0,22.5,30.50,NW,307,1.0,6.0,65,0.00,,,0.00,Weather View 32 v70,2013-02-22 16:45:00,
2013-02-22 11:50:00,32.3,21.8,30.50,North,358,3.0,7.0,65,0.00,,,0.00,Weather View 32 v70,2013-02-22 16:50:00,
2013-02-22 11:55:00,32.3,21.8,30.50,NW,319,3.0,7.0,65,0.00,,,0.00,Weather View 32 v70,2013-02-22 16:55:00,
2013-02-22 12:06:00,32.5,22.0,30.49,NW,322,2.0,7.0,65,0.00,,,0.00,Weather View 32 v70,2013-02-22 17:06:00,
2013-02-22 12:34:00,35.7,25.1,30.48,South,177,0.0,7.0,65,0.00,,,0.00,Weather View 32 v70,2013-02-22 17:34:00,
2013-02-22 12:39:00,35.9,24.9,30.47,SE,141,2.0,7.0,64,0.00,,,0.00,Weather View 32 v70,2013-02-22 17:39:00,
2013-02-22 13:35:00,36.6,27.0,30.42,NE,52,2.0,8.0,68,0.00,,,0.00,Weather View 32 v70,2013-02-22 18:35:00,
2013-02-22 13:37:00,36.6,27.0,30.43,SSE,157,1.0,8.0,68,0.00,,,0.00,Weather View 32 v70,2013-02-22 18:37:00,